Time;durP1;ratioP1;P1;durP2;ratioP2;P2;SDS_P1;SDS_P2;PMS_P1;PMS_P2;Temp;Humidity;BMP_temperature;BMP_pressure;BME280_temperature;BME280_humidity;BME280_pressure;Samples;Min_cycle;Max_cycle;Signal;HPM_P1;HPM_P2
2023/08/25 00:02:15;;;;;;;4.13;3.83;;;24.90;99.90;;;;;;5065017;28;20211;-67
2023/08/25 00:04:42;;;;;;;3.70;3.47;;;24.80;99.90;;;;;;5065106;28;20314;-67
2023/08/25 00:07:09;;;;;;;3.47;3.17;;;24.80;99.90;;;;;;5065098;28;20285;-67
2023/08/25 00:09:37;;;;;;;4.45;3.17;;;24.80;99.90;;;;;;5065223;28;20698;-67
2023/08/25 00:12:05;;;;;;;3.65;3.35;;;24.90;99.90;;;;;;5064785;28;20222;-67
2023/08/25 00:14:32;;;;;;;3.28;3.03;;;24.90;99.90;;;;;;5065097;28;20203;-66
2023/08/25 00:16:59;;;;;;;4.70;3.45;;;24.90;99.90;;;;;;5065369;28;20302;-66
2023/08/25 00:19:26;;;;;;;3.22;2.92;;;24.90;99.90;;;;;;5065833;28;20619;-66
2023/08/25 00:21:53;;;;;;;4.03;3.72;;;24.90;99.90;;;;;;5065693;28;20265;-66
2023/08/25 00:24:20;;;;;;;4.18;3.58;;;24.90;99.90;;;;;;5085111;28;20198;-66
2023/08/25 00:26:49;;;;;;;4.20;3.20;;;24.90;99.90;;;;;;5085608;28;20217;-66
2023/08/25 00:29:16;;;;;;;3.80;3.20;;;24.90;99.90;;;;;;5065005;28;20203;-66
2023/08/25 00:31:44;;;;;;;3.47;3.10;;;24.90;99.90;;;;;;5064695;28;20235;-67
2023/08/25 00:34:11;;;;;;;4.10;3.20;;;24.90;99.90;;;;;;5065204;28;20268;-66
2023/08/25 00:36:37;;;;;;;3.63;3.20;;;24.90;99.90;;;;;;5064287;28;20586;-67
2023/08/25 00:39:04;;;;;;;4.82;3.50;;;24.90;99.90;;;;;;5064734;28;20338;-67
2023/08/25 00:41:31;;;;;;;4.38;3.70;;;24.90;99.90;;;;;;5063957;28;20969;-67
2023/08/25 00:43:59;;;;;;;4.00;3.70;;;25.00;99.90;;;;;;5064629;28;20302;-67
2023/08/25 00:46:26;;;;;;;4.25;3.33;;;25.00;99.90;;;;;;5064557;28;20767;-67
2023/08/25 00:48:53;;;;;;;3.47;3.25;;;25.00;99.90;;;;;;5065020;28;20976;-67
2023/08/25 00:51:20;;;;;;;3.75;3.10;;;25.00;99.90;;;;;;5065033;28;20359;-66
2023/08/25 00:53:48;;;;;;;4.32;3.10;;;25.00;99.90;;;;;;5073114;28;20206;-67
2023/08/25 00:56:16;;;;;;;3.30;3.10;;;25.00;99.90;;;;;;5064781;28;20301;-66
2023/08/25 00:58:43;;;;;;;3.38;3.08;;;24.90;99.90;;;;;;5064743;28;20269;-66
2023/08/25 01:01:13;;;;;;;3.55;3.30;;;24.90;99.90;;;;;;5064733;28;20237;-66
2023/08/25 01:03:41;;;;;;;3.80;3.50;;;24.90;99.90;;;;;;5064351;28;20215;-67
2023/08/25 01:06:09;;;;;;;5.20;3.75;;;24.90;99.90;;;;;;5069570;28;20229;-67
2023/08/25 01:08:36;;;;;;;3.90;3.60;;;24.80;99.90;;;;;;5083905;28;20211;-67
2023/08/25 01:11:21;;;;;;;4.28;3.88;;;24.80;99.90;;;;;;5083958;28;21079;-67
2023/08/25 01:14:01;;;;;;;3.60;3.30;;;24.80;99.90;;;;;;5084676;28;20729;-67
2023/08/25 01:16:34;;;;;;;5.78;3.78;;;24.80;99.90;;;;;;5072595;28;20233;-67
2023/08/25 01:19:04;;;;;;;3.75;3.35;;;24.80;99.90;;;;;;5070274;28;20196;-67
2023/08/25 01:21:35;;;;;;;3.63;3.38;;;24.80;99.90;;;;;;5084546;28;20566;-67
2023/08/25 01:24:13;;;;;;;3.83;3.53;;;24.70;99.90;;;;;;5084653;28;20661;-67
2023/08/25 01:26:41;;;;;;;4.32;3.55;;;24.60;99.90;;;;;;5084507;28;20218;-67
2023/08/25 01:29:08;;;;;;;3.85;3.35;;;24.50;99.90;;;;;;5084804;28;20310;-67
2023/08/25 01:31:35;;;;;;;4.05;3.53;;;24.40;99.90;;;;;;5064566;28;20658;-67
2023/08/25 01:34:02;;;;;;;6.32;3.65;;;24.50;99.90;;;;;;5064304;28;20210;-67
2023/08/25 01:36:34;;;;;;;4.10;3.70;;;24.50;99.90;;;;;;5065158;28;20231;-67
2023/08/25 01:39:06;;;;;;;5.70;3.60;;;24.40;99.90;;;;;;5082203;28;20688;-67
2023/08/25 01:41:41;;;;;;;6.03;3.60;;;24.50;99.90;;;;;;5084469;28;20215;-67
2023/08/25 01:44:11;;;;;;;3.65;3.45;;;24.50;99.90;;;;;;5065623;28;20570;-67
2023/08/25 01:46:39;;;;;;;3.97;3.65;;;24.60;99.90;;;;;;5064132;28;20264;-67
2023/08/25 01:49:07;;;;;;;5.18;3.47;;;24.60;99.90;;;;;;5065228;28;20326;-67
2023/08/25 01:51:35;;;;;;;4.30;3.20;;;24.60;99.90;;;;;;5083995;28;20297;-67
2023/08/25 01:54:03;;;;;;;3.40;3.20;;;24.50;99.90;;;;;;5081562;28;21084;-67
2023/08/25 01:56:30;;;;;;;5.65;3.58;;;24.60;99.90;;;;;;5067575;28;20199;-67
2023/08/25 01:58:56;;;;;;;4.22;3.78;;;24.60;99.90;;;;;;5083689;28;20768;-67
2023/08/25 02:01:25;;;;;;;3.42;3.17;;;24.60;99.90;;;;;;5084261;28;20665;-67
2023/08/25 02:03:52;;;;;;;3.75;3.45;;;24.60;99.90;;;;;;5084395;28;20214;-67
2023/08/25 02:06:20;;;;;;;3.78;3.35;;;24.60;99.90;;;;;;5083748;28;20231;-67
2023/08/25 02:08:47;;;;;;;4.95;3.42;;;24.60;99.90;;;;;;5084538;28;20763;-67
2023/08/25 02:11:14;;;;;;;3.90;3.47;;;24.60;99.90;;;;;;5079448;28;20221;-67
2023/08/25 02:13:40;;;;;;;4.68;3.80;;;24.60;99.90;;;;;;5064489;28;20214;-67
2023/08/25 02:16:07;;;;;;;10.85;3.70;;;24.60;99.90;;;;;;5069793;28;20214;-67
2023/08/25 02:18:36;;;;;;;3.83;3.42;;;24.50;99.90;;;;;;5083941;28;20685;-67
2023/08/25 02:21:03;;;;;;;5.78;3.60;;;24.50;99.90;;;;;;5084484;28;20335;-67
2023/08/25 02:23:29;;;;;;;3.90;3.70;;;24.50;99.90;;;;;;5086860;28;20199;-67
2023/08/25 02:25:56;;;;;;;3.85;3.22;;;24.40;99.90;;;;;;5088045;28;20234;-66
2023/08/25 02:28:23;;;;;;;5.30;3.45;;;24.40;99.90;;;;;;5084195;28;20203;-67
2023/08/25 02:30:50;;;;;;;6.05;3.78;;;24.40;99.90;;;;;;5067088;28;20308;-67
2023/08/25 02:33:17;;;;;;;3.85;3.55;;;24.50;99.90;;;;;;5067393;28;20299;-67
2023/08/25 02:35:45;;;;;;;4.15;3.72;;;24.50;99.90;;;;;;5067692;28;20294;-67
2023/08/25 02:38:13;;;;;;;3.75;3.47;;;24.50;99.90;;;;;;5067419;28;20207;-67
2023/08/25 02:40:40;;;;;;;4.28;3.70;;;24.40;99.90;;;;;;5074791;28;20230;-67
2023/08/25 02:43:08;;;;;;;5.00;3.55;;;24.40;99.90;;;;;;5087473;28;20238;-68
2023/08/25 02:45:35;;;;;;;4.18;3.78;;;24.40;99.90;;;;;;5087539;28;20302;-68
2023/08/25 02:48:03;;;;;;;4.40;4.00;;;24.40;99.90;;;;;;5087593;28;20657;-68
2023/08/25 02:50:29;;;;;;;4.32;4.03;;;24.40;99.90;;;;;;5088089;28;20238;-67
2023/08/25 02:52:58;;;;;;;4.13;3.80;;;24.40;99.90;;;;;;5078454;28;20295;-67
2023/08/25 02:55:24;;;;;;;4.70;3.90;;;24.40;99.90;;;;;;5080457;28;20211;-67
2023/08/25 02:57:52;;;;;;;4.57;3.70;;;24.40;99.90;;;;;;5087433;28;20210;-67
2023/08/25 03:00:21;;;;;;;4.05;3.75;;;24.40;99.90;;;;;;5087283;28;20230;-68
2023/08/25 03:02:49;;;;;;;4.32;3.90;;;24.30;99.90;;;;;;5068628;28;20749;-68
2023/08/25 03:05:16;;;;;;;3.90;3.60;;;24.30;99.90;;;;;;5068154;28;20301;-66
2023/08/25 03:07:42;;;;;;;4.82;3.72;;;24.30;99.90;;;;;;5081356;28;20314;-67
2023/08/25 03:10:12;;;;;;;4.35;3.95;;;24.30;99.90;;;;;;5080984;28;20216;-67
2023/08/25 03:12:39;;;;;;;4.22;3.83;;;24.20;99.90;;;;;;5082819;28;20207;-68
2023/08/25 03:15:07;;;;;;;4.13;3.70;;;24.30;99.90;;;;;;5076874;28;20205;-66
2023/08/25 03:17:34;;;;;;;6.13;4.30;;;24.20;99.90;;;;;;5077283;28;20234;-66
2023/08/25 03:20:00;;;;;;;4.20;3.88;;;24.20;99.90;;;;;;5081297;28;20211;-66
2023/08/25 03:22:27;;;;;;;4.05;3.75;;;24.20;99.90;;;;;;5084698;28;20289;-66
2023/08/25 03:24:54;;;;;;;5.13;3.55;;;24.10;99.90;;;;;;5085226;28;20213;-66
2023/08/25 03:27:22;;;;;;;4.10;3.78;;;24.10;99.90;;;;;;5084889;28;20238;-66
2023/08/25 03:29:49;;;;;;;4.65;4.25;;;24.10;99.90;;;;;;5084112;28;20203;-66
2023/08/25 03:32:16;;;;;;;5.07;4.22;;;24.00;99.90;;;;;;5084494;28;20867;-66
2023/08/25 03:34:43;;;;;;;5.40;3.70;;;24.00;99.90;;;;;;5083946;28;20207;-66
2023/08/25 03:37:11;;;;;;;6.78;4.60;;;24.00;99.90;;;;;;5077118;28;20234;-66
2023/08/25 03:39:38;;;;;;;4.53;4.20;;;24.00;99.90;;;;;;5064503;28;20219;-66
2023/08/25 03:42:05;;;;;;;6.28;4.40;;;24.00;99.90;;;;;;5100983;28;21122;-66
2023/08/25 03:44:34;;;;;;;8.07;4.63;;;24.00;99.90;;;;;;5104651;28;20217;-66
2023/08/25 03:47:02;;;;;;;5.53;4.10;;;24.10;99.90;;;;;;5104815;28;20277;-66
2023/08/25 03:49:30;;;;;;;4.85;4.10;;;24.00;99.90;;;;;;5104724;28;20241;-66
2023/08/25 03:51:58;;;;;;;5.53;4.25;;;24.00;99.90;;;;;;5097399;28;20765;-66
2023/08/25 03:54:25;;;;;;;5.53;4.10;;;24.00;99.90;;;;;;5064512;28;20207;-66
2023/08/25 03:56:52;;;;;;;7.50;4.38;;;24.00;99.90;;;;;;5064095;28;20217;-66
2023/08/25 03:59:19;;;;;;;4.63;4.15;;;24.00;99.90;;;;;;5068627;28;20230;-66
2023/08/25 04:01:47;;;;;;;4.10;3.70;;;24.00;99.90;;;;;;5085328;28;20294;-66
2023/08/25 04:04:14;;;;;;;4.85;3.95;;;24.00;99.90;;;;;;5084817;28;20206;-66
2023/08/25 04:06:42;;;;;;;4.85;4.45;;;24.00;99.90;;;;;;5085696;28;20238;-66
2023/08/25 04:09:09;;;;;;;4.65;4.20;;;24.00;99.90;;;;;;5081254;28;20210;-66
2023/08/25 04:11:36;;;;;;;5.32;4.93;;;24.00;99.90;;;;;;5077420;28;20836;-66
2023/08/25 04:14:03;;;;;;;5.22;4.65;;;24.00;99.90;;;;;;5084195;28;20203;-66
2023/08/25 04:16:30;;;;;;;7.20;4.47;;;24.00;99.90;;;;;;5071198;28;20322;-66
2023/08/25 04:18:58;;;;;;;6.43;4.53;;;24.00;99.90;;;;;;5073897;28;20213;-66
2023/08/25 04:21:25;;;;;;;4.60;4.30;;;23.90;99.90;;;;;;5085233;28;20680;-66
2023/08/25 04:23:52;;;;;;;5.88;4.90;;;23.90;99.90;;;;;;5084339;28;20757;-66
2023/08/25 04:26:19;;;;;;;5.65;4.40;;;23.90;99.90;;;;;;5084986;28;20311;-66
2023/08/25 04:28:46;;;;;;;6.35;4.53;;;23.90;99.90;;;;;;5066104;28;20204;-66
2023/08/25 04:31:13;;;;;;;4.55;4.28;;;23.90;99.90;;;;;;5065319;28;20223;-66
2023/08/25 04:33:40;;;;;;;5.38;4.88;;;23.80;99.90;;;;;;5064525;28;20235;-66
2023/08/25 04:36:08;;;;;;;5.35;4.88;;;23.80;99.90;;;;;;5070243;28;20203;-66
2023/08/25 04:38:35;;;;;;;4.90;4.50;;;23.80;99.90;;;;;;5078235;28;20657;-66
2023/08/25 04:41:02;;;;;;;4.82;4.43;;;23.80;99.90;;;;;;5079390;28;20207;-66
2023/08/25 04:43:28;;;;;;;5.88;4.43;;;23.80;99.90;;;;;;5076362;28;20757;-66
2023/08/25 04:45:55;;;;;;;5.20;4.50;;;23.80;99.90;;;;;;5076150;28;20575;-66
2023/08/25 04:48:23;;;;;;;5.07;4.72;;;23.80;99.90;;;;;;5073217;28;20657;-66
2023/08/25 04:50:50;;;;;;;5.20;4.15;;;23.80;99.90;;;;;;5073431;28;20206;-66
2023/08/25 04:53:18;;;;;;;4.50;4.20;;;23.80;99.90;;;;;;5073540;28;20287;-66
2023/08/25 04:55:46;;;;;;;5.68;4.55;;;23.80;99.90;;;;;;5071966;28;20201;-66
2023/08/25 04:58:13;;;;;;;4.80;4.40;;;23.80;99.90;;;;;;5074817;28;20195;-66
2023/08/25 05:00:40;;;;;;;6.35;4.80;;;23.80;99.90;;;;;;5073655;28;20727;-66
2023/08/25 05:03:09;;;;;;;6.07;4.50;;;23.80;99.90;;;;;;5075525;28;20211;-66
2023/08/25 05:05:38;;;;;;;5.45;4.30;;;23.80;99.90;;;;;;5075229;28;20705;-66
2023/08/25 05:08:06;;;;;;;6.20;4.63;;;23.80;99.90;;;;;;5071714;28;20320;-66
2023/08/25 05:10:34;;;;;;;6.25;4.90;;;23.80;99.90;;;;;;5073281;28;20286;-66
2023/08/25 05:13:01;;;;;;;4.65;4.35;;;23.80;99.90;;;;;;5075155;28;20676;-66
2023/08/25 05:15:28;;;;;;;5.15;4.53;;;23.70;99.90;;;;;;5064349;28;20287;-66
2023/08/25 05:17:54;;;;;;;4.82;4.43;;;23.70;99.90;;;;;;5064953;28;20207;-66
2023/08/25 05:20:22;;;;;;;6.65;5.05;;;23.70;99.90;;;;;;5064699;28;20231;-66
2023/08/25 05:22:50;;;;;;;7.07;4.85;;;23.70;99.90;;;;;;5068969;28;20295;-66
2023/08/25 05:25:19;;;;;;;5.18;4.88;;;23.70;99.90;;;;;;5076770;28;20199;-66
2023/08/25 05:27:48;;;;;;;5.10;4.63;;;23.70;99.90;;;;;;5064885;28;20242;-66
2023/08/25 05:30:15;;;;;;;4.82;4.43;;;23.80;99.90;;;;;;5064684;28;20206;-66
2023/08/25 05:32:41;;;;;;;5.00;4.60;;;23.70;99.90;;;;;;5064350;28;20633;-66
2023/08/25 05:35:09;;;;;;;4.85;4.45;;;23.70;99.90;;;;;;5067615;28;20338;-66
2023/08/25 05:37:36;;;;;;;5.47;5.07;;;23.70;99.90;;;;;;5073855;28;20206;-66
2023/08/25 05:40:05;;;;;;;9.98;5.20;;;23.70;99.90;;;;;;5074988;28;20725;-66
2023/08/25 05:42:33;;;;;;;5.32;4.82;;;23.70;99.90;;;;;;5072222;28;20208;-66
2023/08/25 05:45:03;;;;;;;6.15;5.03;;;23.70;99.90;;;;;;5073591;28;20236;-66
2023/08/25 05:47:29;;;;;;;8.02;5.43;;;23.70;99.90;;;;;;5074284;28;20231;-66
2023/08/25 05:49:56;;;;;;;4.75;4.45;;;23.70;99.90;;;;;;5069562;28;20298;-66
2023/08/25 05:52:24;;;;;;;8.90;4.93;;;23.70;99.90;;;;;;5072903;28;20286;-66
2023/08/25 05:54:50;;;;;;;6.82;5.28;;;23.70;99.90;;;;;;5081476;28;20195;-66
2023/08/25 05:57:17;;;;;;;7.60;5.25;;;23.80;99.90;;;;;;5074327;28;20990;-66
2023/08/25 05:59:44;;;;;;;6.00;5.40;;;23.80;99.90;;;;;;5073411;28;20243;-66
2023/08/25 06:02:13;;;;;;;7.30;5.20;;;23.80;99.90;;;;;;5075314;28;20741;-66
2023/08/25 06:04:40;;;;;;;5.28;4.80;;;23.80;99.90;;;;;;5078800;28;20252;-66
2023/08/25 06:07:06;;;;;;;6.05;5.13;;;23.80;99.90;;;;;;5084881;28;20309;-66
2023/08/25 06:09:33;;;;;;;6.43;5.15;;;23.80;99.90;;;;;;5083559;28;20226;-66
2023/08/25 06:12:01;;;;;;;5.22;4.93;;;23.80;99.90;;;;;;5090645;28;20656;-66
2023/08/25 06:14:29;;;;;;;7.35;5.10;;;23.90;99.90;;;;;;5072370;28;20290;-66
2023/08/25 06:17:00;;;;;;;5.43;4.95;;;23.90;99.90;;;;;;5078306;28;20598;-66
2023/08/25 06:19:28;;;;;;;6.07;5.55;;;23.90;99.90;;;;;;5073079;28;20187;-66
2023/08/25 06:21:55;;;;;;;8.18;5.03;;;23.90;99.90;;;;;;5073435;28;20902;-66
2023/08/25 06:24:24;;;;;;;5.53;5.00;;;23.90;99.90;;;;;;5078820;28;20195;-66
2023/08/25 06:26:52;;;;;;;6.00;5.50;;;23.90;99.90;;;;;;5079812;28;20218;-66
2023/08/25 06:29:19;;;;;;;7.57;5.38;;;23.90;99.90;;;;;;5076223;28;20880;-66
2023/08/25 06:31:45;;;;;;;7.00;5.18;;;24.00;99.90;;;;;;5077472;28;20334;-66
2023/08/25 06:34:12;;;;;;;7.32;5.50;;;24.00;99.90;;;;;;5079892;28;20198;-66
2023/08/25 06:36:41;;;;;;;5.78;4.93;;;24.00;99.90;;;;;;5077412;28;20597;-66
2023/08/25 06:39:08;;;;;;;6.40;5.50;;;24.00;99.90;;;;;;5073568;28;20313;-66
2023/08/25 06:41:35;;;;;;;6.05;5.20;;;24.00;99.90;;;;;;5078523;28;20578;-66
2023/08/25 06:44:01;;;;;;;5.90;5.40;;;24.00;99.90;;;;;;5079793;28;20310;-66
2023/08/25 06:46:28;;;;;;;5.93;5.45;;;24.00;99.90;;;;;;5078491;28;20978;-66
2023/08/25 06:48:55;;;;;;;5.45;4.85;;;24.00;99.90;;;;;;5082630;28;20201;-66
2023/08/25 06:51:22;;;;;;;5.65;5.15;;;23.80;99.90;;;;;;5078468;28;20294;-66
2023/08/25 06:53:50;;;;;;;5.10;4.70;;;23.80;99.90;;;;;;5077523;28;20208;-66
2023/08/25 06:56:17;;;;;;;5.85;5.18;;;23.80;99.90;;;;;;5081384;28;20198;-66
2023/08/25 06:58:44;;;;;;;6.57;5.43;;;23.80;99.90;;;;;;5065875;28;20290;-66
2023/08/25 07:01:11;;;;;;;6.30;5.10;;;23.80;99.90;;;;;;5071424;28;20235;-66
2023/08/25 07:03:38;;;;;;;5.60;5.10;;;23.90;99.90;;;;;;5072838;28;20207;-66
2023/08/25 07:06:06;;;;;;;6.95;5.75;;;24.00;99.90;;;;;;5073801;28;20226;-66
2023/08/25 07:08:33;;;;;;;8.45;5.82;;;24.00;99.90;;;;;;5076889;28;20227;-66
2023/08/25 07:11:03;;;;;;;10.23;5.25;;;24.00;99.90;;;;;;5075836;28;20211;-66
2023/08/25 07:13:31;;;;;;;5.85;5.20;;;24.00;99.90;;;;;;5074058;28;20195;-66
2023/08/25 07:15:58;;;;;;;8.27;5.45;;;24.10;99.90;;;;;;5079153;28;20572;-66
2023/08/25 07:18:25;;;;;;;6.90;5.28;;;24.10;99.90;;;;;;5078469;28;20575;-66
2023/08/25 07:20:52;;;;;;;7.97;5.25;;;24.20;99.90;;;;;;5074221;28;20234;-66
2023/08/25 07:23:19;;;;;;;5.88;5.38;;;24.30;99.90;;;;;;5081447;28;20209;-66
2023/08/25 07:25:46;;;;;;;5.45;4.63;;;24.30;99.90;;;;;;5072225;28;20665;-66
2023/08/25 07:28:15;;;;;;;6.18;5.22;;;24.30;99.90;;;;;;5077736;28;20313;-66
2023/08/25 07:30:42;;;;;;;5.60;5.20;;;24.30;99.90;;;;;;5074506;28;20227;-66
2023/08/25 07:33:09;;;;;;;5.43;4.93;;;24.30;99.90;;;;;;5074522;28;20283;-66
2023/08/25 07:35:36;;;;;;;6.07;5.25;;;24.40;99.90;;;;;;5074115;28;20285;-66
2023/08/25 07:38:04;;;;;;;5.80;5.22;;;24.40;99.90;;;;;;5074456;28;20206;-66
2023/08/25 07:40:31;;;;;;;7.70;5.55;;;24.50;99.90;;;;;;5075802;28;20199;-66
2023/08/25 07:43:01;;;;;;;10.25;4.53;;;24.60;99.90;;;;;;5076633;28;20199;-66
2023/08/25 07:45:30;;;;;;;7.68;4.85;;;24.60;99.90;;;;;;5066257;28;20208;-66
2023/08/25 07:47:59;;;;;;;7.30;5.20;;;24.70;99.90;;;;;;5066135;28;20223;-66
2023/08/25 07:50:27;;;;;;;9.40;5.28;;;24.80;99.90;;;;;;5071844;28;20210;-66
2023/08/25 07:52:54;;;;;;;7.85;4.88;;;24.90;99.90;;;;;;5074059;28;20649;-66
2023/08/25 07:55:21;;;;;;;5.20;4.80;;;25.00;99.90;;;;;;5077467;28;21030;-66
2023/08/25 07:57:48;;;;;;;7.75;4.30;;;25.00;99.90;;;;;;5076260;28;20572;-66
2023/08/25 08:00:17;;;;;;;6.03;4.80;;;25.10;99.90;;;;;;5079165;28;20266;-66
2023/08/25 08:02:47;;;;;;;6.68;4.80;;;25.10;99.90;;;;;;5071489;28;20203;-66
2023/08/25 08:05:15;;;;;;;8.43;4.40;;;25.20;99.90;;;;;;5069848;28;20225;-66
2023/08/25 08:07:43;;;;;;;8.35;4.82;;;25.30;99.90;;;;;;5078848;28;20238;-66
2023/08/25 08:10:11;;;;;;;5.35;4.20;;;25.30;99.90;;;;;;5076901;28;20227;-66
2023/08/25 08:12:38;;;;;;;6.43;4.47;;;25.40;99.90;;;;;;5071847;28;20290;-66
2023/08/25 08:15:07;;;;;;;7.53;4.28;;;25.40;99.90;;;;;;5079181;28;20314;-66
2023/08/25 08:17:34;;;;;;;6.65;4.32;;;25.50;99.90;;;;;;5077570;28;20285;-66
2023/08/25 08:20:03;;;;;;;5.97;4.20;;;25.50;99.90;;;;;;5076247;28;20203;-66
2023/08/25 08:22:30;;;;;;;4.80;4.40;;;25.60;99.90;;;;;;5079841;28;20226;-66
2023/08/25 08:24:57;;;;;;;4.50;3.97;;;25.60;99.90;;;;;;5076782;28;20625;-66
2023/08/25 08:27:25;;;;;;;5.45;4.50;;;25.70;99.90;;;;;;5070888;28;20683;-66
2023/08/25 08:29:52;;;;;;;4.78;4.28;;;25.80;99.90;;;;;;5078472;28;20712;-66
2023/08/25 08:32:19;;;;;;;6.32;3.90;;;25.80;99.90;;;;;;5076963;28;20202;-66
2023/08/25 08:34:46;;;;;;;4.72;4.03;;;25.90;99.90;;;;;;5073278;28;20191;-66
2023/08/25 08:37:15;;;;;;;4.15;3.75;;;26.00;99.90;;;;;;5072961;28;20227;-66
2023/08/25 08:39:43;;;;;;;5.28;3.70;;;26.00;99.90;;;;;;5073650;28;20200;-66
2023/08/25 08:42:15;;;;;;;7.95;4.20;;;26.00;99.90;;;;;;5099630;28;20733;-66
2023/08/25 08:44:47;;;;;;;4.55;3.40;;;26.10;99.90;;;;;;5072389;28;20222;-66
2023/08/25 08:47:16;;;;;;;7.53;4.18;;;26.10;99.90;;;;;;5082399;28;20298;-66
2023/08/25 08:49:44;;;;;;;4.00;3.60;;;26.10;99.90;;;;;;5082246;28;20218;-67
2023/08/25 08:52:11;;;;;;;6.43;3.60;;;26.10;99.90;;;;;;5071745;28;20208;-67
2023/08/25 08:54:43;;;;;;;4.95;3.22;;;26.20;99.90;;;;;;5076118;28;20208;-67
2023/08/25 08:57:11;;;;;;;4.05;3.70;;;26.20;99.90;;;;;;5073975;28;20222;-67
2023/08/25 08:59:38;;;;;;;4.68;3.58;;;26.30;99.90;;;;;;5075767;28;20307;-67
2023/08/25 09:02:06;;;;;;;4.32;3.80;;;26.40;99.90;;;;;;5076694;28;20994;-68
2023/08/25 09:04:34;;;;;;;3.83;3.30;;;26.50;99.90;;;;;;5064688;28;20215;-68
2023/08/25 09:07:05;;;;;;;68.65;8.32;;;26.60;99.90;;;;;;5064553;28;20203;-68
2023/08/25 09:09:32;;;;;;;8.63;3.60;;;26.60;99.90;;;;;;5064473;28;20203;-68
2023/08/25 09:12:01;;;;;;;4.22;3.75;;;26.70;99.90;;;;;;5069472;28;20256;-68
2023/08/25 09:14:29;;;;;;;5.22;3.35;;;26.80;99.90;;;;;;5072208;28;20210;-67
2023/08/25 09:16:57;;;;;;;4.20;3.40;;;26.80;99.90;;;;;;5074396;28;20226;-67
2023/08/25 09:19:24;;;;;;;5.07;3.38;;;26.80;99.90;;;;;;5076411;28;20293;-67
2023/08/25 09:21:51;;;;;;;5.40;3.63;;;26.90;99.90;;;;;;5074891;28;20238;-67
2023/08/25 09:24:20;;;;;;;3.85;3.05;;;27.00;99.90;;;;;;5077985;28;20234;-67
2023/08/25 09:26:47;;;;;;;5.25;2.97;;;27.10;99.90;;;;;;5067319;28;20257;-67
2023/08/25 09:29:16;;;;;;;3.33;2.63;;;27.10;99.90;;;;;;5077530;28;20219;-67
2023/08/25 09:31:44;;;;;;;3.20;2.92;;;27.00;99.90;;;;;;5070423;28;20259;-68
2023/08/25 09:34:13;;;;;;;6.13;2.85;;;27.30;99.90;;;;;;5080492;28;20279;-68
2023/08/25 09:36:52;;;;;;;3.15;2.92;;;27.30;99.90;;;;;;5077787;28;20221;-68
2023/08/25 09:39:20;;;;;;;4.28;2.80;;;27.30;99.90;;;;;;5075712;28;20677;-68
2023/08/25 09:41:47;;;;;;;7.00;2.80;;;27.30;99.90;;;;;;5075665;28;20314;-68
2023/08/25 09:44:16;;;;;;;4.70;2.85;;;27.40;99.90;;;;;;5082182;28;20264;-66
2023/08/25 09:46:44;;;;;;;3.90;3.25;;;27.60;99.90;;;;;;5079025;28;20688;-66
2023/08/25 09:49:13;;;;;;;4.13;2.78;;;27.70;99.90;;;;;;5077449;28;20813;-67
2023/08/25 09:51:42;;;;;;;3.72;2.55;;;27.70;99.90;;;;;;5079694;28;20570;-66
2023/08/25 09:54:14;;;;;;;3.67;3.10;;;27.70;99.90;;;;;;5077859;28;20203;-67
2023/08/25 09:56:45;;;;;;;5.38;2.88;;;27.70;99.90;;;;;;5076729;28;20195;-67
2023/08/25 09:59:13;;;;;;;4.97;3.88;;;27.70;99.90;;;;;;5079551;28;20658;-67
2023/08/25 10:01:44;;;;;;;5.55;3.47;;;27.80;99.90;;;;;;5078897;28;20273;-67
2023/08/25 10:04:11;;;;;;;4.35;3.80;;;27.80;99.90;;;;;;5074755;28;20687;-67
2023/08/25 10:06:39;;;;;;;12.05;10.77;;;27.80;99.90;;;;;;5075779;28;20252;-67
2023/08/25 10:09:07;;;;;;;7.97;5.95;;;27.90;99.90;;;;;;5075365;28;20222;-67
2023/08/25 10:11:40;;;;;;;3.83;3.63;;;28.00;99.90;;;;;;5074581;28;20281;-67
2023/08/25 10:14:08;;;;;;;4.70;3.92;;;28.10;99.90;;;;;;5076062;28;20192;-67
2023/08/25 10:16:39;;;;;;;4.10;3.70;;;28.00;99.90;;;;;;5077390;28;20234;-67
2023/08/25 10:19:12;;;;;;;4.72;4.25;;;28.00;99.90;;;;;;5076093;28;20288;-67
2023/08/25 10:21:40;;;;;;;4.95;3.42;;;28.00;99.90;;;;;;5079588;28;20927;-67
2023/08/25 10:24:08;;;;;;;5.20;3.80;;;28.00;99.90;;;;;;5085339;28;20205;-67
2023/08/25 10:26:35;;;;;;;3.75;3.38;;;27.90;99.90;;;;;;5079162;28;20768;-67
2023/08/25 10:29:02;;;;;;;5.25;3.58;;;27.90;99.90;;;;;;5074069;28;20700;-67
2023/08/25 10:31:32;;;;;;;4.20;3.08;;;27.80;99.90;;;;;;5077678;28;20223;-67
2023/08/25 10:33:59;;;;;;;2.97;2.78;;;27.80;99.90;;;;;;5076781;28;20418;-67
2023/08/25 10:36:28;;;;;;;4.88;3.38;;;27.70;99.90;;;;;;5075981;28;20223;-66
2023/08/25 10:39:10;;;;;;;6.95;3.28;;;27.60;99.90;;;;;;5076652;28;20234;-67
2023/08/25 10:41:43;;;;;;;3.03;2.78;;;27.60;99.90;;;;;;5069338;28;20662;-67
2023/08/25 10:44:19;;;;;;;6.57;2.83;;;27.40;99.90;;;;;;5066994;28;20203;-67
2023/08/25 10:46:46;;;;;;;6.18;3.17;;;27.40;99.90;;;;;;5081219;28;20198;-67
2023/08/25 10:49:13;;;;;;;3.53;3.00;;;27.40;99.90;;;;;;5086873;28;20720;-67
2023/08/25 10:51:42;;;;;;;5.00;3.03;;;27.40;99.90;;;;;;5074899;28;20290;-67
2023/08/25 10:54:18;;;;;;;7.05;3.40;;;27.30;99.90;;;;;;5066737;28;20211;-67
2023/08/25 10:56:45;;;;;;;5.35;3.30;;;27.40;99.90;;;;;;5083987;28;20201;-67
2023/08/25 10:59:12;;;;;;;4.57;3.00;;;27.30;99.90;;;;;;5087167;28;20240;-66
2023/08/25 11:01:56;;;;;;;4.70;3.20;;;27.40;99.90;;;;;;5073654;28;20200;-67
2023/08/25 11:04:24;;;;;;;3.28;3.08;;;27.50;99.90;;;;;;5066952;28;20200;-66
2023/08/25 11:06:53;;;;;;;3.78;2.90;;;27.50;99.90;;;;;;5066661;28;20210;-67
2023/08/25 11:09:35;;;;;;;6.93;3.28;;;27.60;99.90;;;;;;5066986;28;20338;-67
2023/08/25 11:12:06;;;;;;;4.70;3.03;;;27.60;99.90;;;;;;5086338;28;20300;-67
2023/08/25 11:14:35;;;;;;;3.83;2.67;;;27.60;99.90;;;;;;5107446;28;20229;-67
2023/08/25 11:17:04;;;;;;;3.97;3.08;;;27.70;99.90;;;;;;5096704;28;20203;-67
2023/08/25 11:19:32;;;;;;;3.60;3.03;;;27.80;99.90;;;;;;5086435;28;20213;-67
2023/08/25 11:22:02;;;;;;;5.28;2.60;;;27.90;99.90;;;;;;5086614;28;20246;-67
2023/08/25 11:24:31;;;;;;;2.90;2.60;;;28.10;99.90;;;;;;5071204;28;20262;-67
2023/08/25 11:27:05;;;;;;;2.75;2.17;;;28.40;99.90;;;;;;5075769;28;20207;-68
2023/08/25 11:29:32;;;;;;;3.72;2.67;;;28.70;99.90;;;;;;5072157;28;20234;-67
2023/08/25 11:32:00;;;;;;;2.70;2.50;;;28.80;99.90;;;;;;5081439;28;20210;-68
2023/08/25 11:34:29;;;;;;;2.75;2.55;;;28.70;99.90;;;;;;5074656;28;20207;-68
2023/08/25 11:36:57;;;;;;;3.20;2.33;;;28.70;99.90;;;;;;5077166;28;20200;-67
2023/08/25 11:39:25;;;;;;;4.63;2.08;;;28.50;99.90;;;;;;5080848;28;20586;-67
2023/08/25 11:41:54;;;;;;;7.43;2.90;;;28.50;99.90;;;;;;5083407;28;20250;-67
2023/08/25 11:44:22;;;;;;;2.53;2.33;;;28.80;99.90;;;;;;5081153;28;20218;-67
2023/08/25 11:46:50;;;;;;;2.45;2.28;;;29.00;99.90;;;;;;5078175;28;20208;-67
2023/08/25 11:49:19;;;;;;;3.42;2.33;;;29.20;99.90;;;;;;5071499;28;20226;-66
2023/08/25 11:51:46;;;;;;;4.72;2.67;;;29.30;99.90;;;;;;5075775;28;20206;-67
2023/08/25 11:54:13;;;;;;;4.97;2.70;;;29.30;99.90;;;;;;5082188;28;20256;-67
2023/08/25 11:56:50;;;;;;;2.70;2.53;;;29.20;99.90;;;;;;5073491;28;20241;-68
2023/08/25 11:59:18;;;;;;;3.05;2.53;;;29.10;99.90;;;;;;5071575;28;20246;-67
2023/08/25 12:01:46;;;;;;;3.17;2.95;;;29.20;99.90;;;;;;5078476;28;20195;-67
2023/08/25 12:04:24;;;;;;;4.50;3.30;;;29.40;99.90;;;;;;5073309;28;20203;-67
2023/08/25 12:06:55;;;;;;;4.15;2.95;;;29.60;99.90;;;;;;5070957;28;20222;-67
2023/08/25 12:09:23;;;;;;;4.45;2.70;;;29.90;99.90;;;;;;5074247;28;20227;-67
2023/08/25 12:11:52;;;;;;;4.38;3.15;;;29.90;99.90;;;;;;5071554;28;21086;-67
2023/08/25 12:14:26;;;;;;;2.97;2.72;;;29.90;99.90;;;;;;5076730;28;20202;-67
2023/08/25 12:16:53;;;;;;;4.80;2.90;;;29.80;99.90;;;;;;5077004;28;20209;-67
2023/08/25 12:19:23;;;;;;;2.67;2.47;;;29.60;99.90;;;;;;5072514;28;20244;-67
2023/08/25 12:21:54;;;;;;;2.97;2.60;;;29.50;99.90;;;;;;5080088;28;20203;-67
2023/08/25 12:24:21;;;;;;;3.08;2.83;;;29.40;99.90;;;;;;5075987;28;20623;-66
2023/08/25 12:26:48;;;;;;;7.20;3.00;;;29.30;99.90;;;;;;5074430;28;20291;-67
2023/08/25 12:29:17;;;;;;;3.17;2.97;;;29.10;99.90;;;;;;5076714;28;20767;-67
2023/08/25 12:31:44;;;;;;;5.28;2.70;;;28.90;99.90;;;;;;5082420;28;20297;-67
2023/08/25 12:34:11;;;;;;;2.90;2.70;;;28.80;99.90;;;;;;5075649;28;20203;-68
2023/08/25 12:36:38;;;;;;;3.42;2.95;;;28.50;99.90;;;;;;5072216;28;20281;-68
2023/08/25 12:39:05;;;;;;;5.10;3.00;;;28.50;99.90;;;;;;5074007;28;20253;-68
2023/08/25 12:41:32;;;;;;;2.97;2.75;;;28.60;99.90;;;;;;5077443;28;20230;-65
2023/08/25 12:43:59;;;;;;;3.47;3.10;;;28.70;99.90;;;;;;5076905;28;20756;-65
2023/08/25 12:46:28;;;;;;;5.75;5.25;;;28.70;99.90;;;;;;5076713;28;20203;-65
2023/08/25 12:48:55;;;;;;;4.97;4.47;;;29.00;99.90;;;;;;5068570;28;20326;-65
2023/08/25 12:51:22;;;;;;;3.40;3.10;;;29.20;99.90;;;;;;5072818;28;20202;-65